createdAt,value
2022-08-03T00:00:26.707Z,99237.16
2022-08-03T00:02:53.896Z,99229.00
2022-08-03T00:05:21.053Z,99239.84
2022-08-03T00:07:48.599Z,99234.84
2022-08-03T00:10:31.960Z,99235.69
2022-08-03T00:12:58.809Z,99228.03
2022-08-03T00:15:25.752Z,99245.91
2022-08-03T00:17:54.098Z,99248.03
2022-08-03T00:20:24.742Z,99244.38
2022-08-03T00:22:52.265Z,99220.50
2022-08-03T00:25:19.208Z,99243.91
2022-08-03T00:27:46.150Z,99232.94
2022-08-03T00:30:16.839Z,99237.09
2022-08-03T00:32:45.247Z,99235.16
2022-08-03T00:35:28.058Z,99267.75
2022-08-03T00:38:00.041Z,99241.25
2022-08-03T00:40:27.504Z,99247.63
2022-08-03T00:43:00.975Z,99251.50
2022-08-03T00:46:00.906Z,99249.22
2022-08-03T00:48:33.144Z,99263.63
2022-08-03T00:51:01.068Z,99271.78
2022-08-03T00:53:28.075Z,99250.81
2022-08-03T00:55:55.011Z,99255.72
2022-08-03T00:58:21.860Z,99218.19
2022-08-03T01:01:06.774Z,99242.41
2022-08-03T01:03:33.717Z,99232.06
2022-08-03T01:06:16.997Z,99235.75
2022-08-03T01:09:16.481Z,99250.38
2022-08-03T01:12:04.195Z,99238.75
2022-08-03T01:14:41.620Z,99221.16
2022-08-03T01:17:19.356Z,99234.28
2022-08-03T01:19:46.208Z,99238.66
2022-08-03T01:22:44.964Z,99236.16
2022-08-03T01:25:54.195Z,99244.13
2022-08-03T01:28:27.350Z,99241.34
2022-08-03T01:30:58.955Z,99235.97
2022-08-03T01:33:35.143Z,99239.06
2022-08-03T01:36:13.184Z,99242.75
2022-08-03T01:38:47.789Z,99256.25
2022-08-03T01:41:20.534Z,99243.00
2022-08-03T01:44:28.397Z,99260.28
2022-08-03T01:46:38.516Z,99253.00
2022-08-03T01:49:09.737Z,99243.34
2022-08-03T01:52:03.702Z,99230.13
2022-08-03T01:54:29.012Z,99236.59
2022-08-03T01:56:59.081Z,99227.88
2022-08-03T01:59:27.775Z,99244.72
2022-08-03T02:02:15.355Z,99253.09
2022-08-03T02:04:45.420Z,99268.84
2022-08-03T02:07:13.973Z,99236.06
2022-08-03T02:09:50.197Z,99259.56
2022-08-03T02:12:19.187Z,99240.94
2022-08-03T02:14:48.789Z,99256.88
2022-08-03T02:17:16.565Z,99254.31
2022-08-03T02:19:45.437Z,99251.00
2022-08-03T02:22:14.903Z,99249.34
2022-08-03T02:24:42.007Z,99240.28
2022-08-03T02:27:22.233Z,99255.00
2022-08-03T02:29:56.481Z,99257.16
2022-08-03T02:32:34.625Z,99262.38
2022-08-03T02:35:03.872Z,99267.06
2022-08-03T02:37:37.578Z,99263.19
2022-08-03T02:40:11.781Z,99263.31
2022-08-03T02:42:40.306Z,99235.75
2022-08-03T02:45:11.108Z,99265.34
2022-08-03T02:47:54.147Z,99271.06
2022-08-03T02:50:23.877Z,99272.28
2022-08-03T02:52:53.013Z,99258.78
2022-08-03T02:55:25.056Z,99242.31
2022-08-03T02:57:52.681Z,99260.88
2022-08-03T03:00:28.240Z,99250.72
2022-08-03T03:02:58.898Z,99251.78
2022-08-03T03:05:56.153Z,99245.72
2022-08-03T03:08:20.972Z,99239.22
2022-08-03T03:10:55.445Z,99233.44
2022-08-03T03:13:23.722Z,99235.22
2022-08-03T03:15:52.151Z,99230.91
2022-08-03T03:18:22.878Z,99216.97
2022-08-03T03:20:53.068Z,99236.19
2022-08-03T03:23:22.390Z,99252.31
2022-08-03T03:25:50.253Z,99225.41
2022-08-03T03:28:17.432Z,99218.53
2022-08-03T03:30:44.542Z,99215.25
2022-08-03T03:33:19.854Z,99231.09
2022-08-03T03:35:47.377Z,99246.63
2022-08-03T03:38:14.579Z,99219.31
2022-08-03T03:40:41.979Z,99233.91
2022-08-03T03:43:10.757Z,99223.69
2022-08-03T03:45:40.497Z,99220.22
2022-08-03T03:48:08.799Z,99233.75
2022-08-03T03:50:37.451Z,99242.03
2022-08-03T03:53:04.783Z,99237.50
2022-08-03T03:55:31.664Z,99222.53
2022-08-03T03:57:58.624Z,99237.16
2022-08-03T04:00:25.501Z,99230.63
2022-08-03T04:02:52.589Z,99223.91
2022-08-03T04:05:19.469Z,99220.94
2022-08-03T04:08:03.546Z,99234.88
2022-08-03T04:10:34.456Z,99230.84
2022-08-03T04:13:04.181Z,99275.38
2022-08-03T04:15:33.223Z,99199.28
2022-08-03T04:18:01.723Z,99235.91
2022-08-03T04:20:32.562Z,99238.63
2022-08-03T04:23:01.698Z,99144.34
2022-08-03T04:25:32.928Z,99244.09
2022-08-03T04:28:29.400Z,99224.44
2022-08-03T04:30:50.545Z,99249.50
2022-08-03T04:33:19.460Z,99236.63
2022-08-03T04:36:01.145Z,99232.16
2022-08-03T04:38:32.998Z,99230.72
2022-08-03T04:41:00.721Z,99220.44
2022-08-03T04:43:28.956Z,99229.75
2022-08-03T04:45:57.180Z,99240.63
2022-08-03T04:48:24.849Z,99231.34
2022-08-03T04:50:52.625Z,99229.91
2022-08-03T04:53:19.755Z,99233.84
2022-08-03T04:55:46.666Z,99226.63
2022-08-03T04:58:13.715Z,99246.56
2022-08-03T05:00:40.621Z,99237.44
2022-08-03T05:03:20.433Z,99236.81
2022-08-03T05:06:06.597Z,99247.63
2022-08-03T05:08:45.260Z,99251.41
2022-08-03T05:11:14.369Z,99248.63
2022-08-03T05:13:41.230Z,99239.59
2022-08-03T05:16:08.116Z,99242.50
2022-08-03T05:18:34.979Z,99242.06
2022-08-03T05:21:02.030Z,99226.00
2022-08-03T05:23:28.934Z,99247.97
2022-08-03T05:25:55.863Z,99255.31
2022-08-03T05:28:22.814Z,99256.72
2022-08-03T05:30:49.694Z,99258.44
2022-08-03T05:33:16.565Z,99240.97
2022-08-03T05:36:02.253Z,99247.88
2022-08-03T05:38:34.778Z,99249.78
2022-08-03T05:41:22.580Z,99264.06
2022-08-03T05:43:55.055Z,99239.75
2022-08-03T05:46:23.092Z,99262.19
2022-08-03T05:48:50.299Z,99247.03
2022-08-03T05:51:17.318Z,99259.56
2022-08-03T05:53:44.916Z,99253.78
2022-08-03T05:56:13.698Z,99256.34
2022-08-03T05:58:48.573Z,99250.25
2022-08-03T06:01:16.736Z,99270.31
2022-08-03T06:03:44.924Z,99275.75
2022-08-03T06:06:12.237Z,99235.63
2022-08-03T06:08:40.120Z,99265.19
2022-08-03T06:11:07.307Z,99277.56
2022-08-03T06:13:34.505Z,99269.31
2022-08-03T06:16:01.624Z,99279.69
2022-08-03T06:18:28.657Z,99281.81
2022-08-03T06:20:55.901Z,99287.59
2022-08-03T06:23:25.339Z,99276.28
2022-08-03T06:26:09.976Z,99281.56
2022-08-03T06:28:52.758Z,99288.19
2022-08-03T06:31:22.405Z,99292.44
2022-08-03T06:34:34.303Z,99283.50
2022-08-03T06:36:36.664Z,99263.94
2022-08-03T06:39:06.021Z,99264.00
2022-08-03T06:41:37.247Z,99278.00
2022-08-03T06:44:08.277Z,99294.53
2022-08-03T06:46:37.216Z,99272.25
2022-08-03T06:49:04.463Z,99285.91
2022-08-03T06:52:03.527Z,99266.03
2022-08-03T06:54:26.016Z,99259.63
2022-08-03T06:56:53.033Z,99294.00
2022-08-03T07:00:10.873Z,99259.63
2022-08-03T07:02:11.890Z,99284.72
2022-08-03T07:04:45.297Z,99272.00
2022-08-03T07:07:12.098Z,99264.38
2022-08-03T07:09:59.037Z,99259.97
2022-08-03T07:12:30.019Z,99272.28
2022-08-03T07:15:01.129Z,99270.41
2022-08-03T07:17:33.152Z,99253.63
2022-08-03T07:20:01.546Z,99277.44
2022-08-03T07:22:28.576Z,99298.00
2022-08-03T07:24:55.598Z,99284.28
2022-08-03T07:27:22.825Z,99286.59
2022-08-03T07:29:49.858Z,99270.91
2022-08-03T07:32:16.910Z,99279.31
2022-08-03T07:34:44.006Z,99269.47
2022-08-03T07:37:10.849Z,99274.13
2022-08-03T07:39:37.790Z,99280.34
2022-08-03T07:42:04.594Z,99274.28
2022-08-03T07:44:54.163Z,99264.03
2022-08-03T07:47:24.192Z,99250.22
2022-08-03T07:49:51.652Z,99257.66
2022-08-03T07:52:19.039Z,99260.91
2022-08-03T07:54:59.394Z,99284.09
2022-08-03T07:57:26.393Z,99274.69
2022-08-03T08:00:01.361Z,99258.13
2022-08-03T08:02:38.905Z,99251.66
2022-08-03T08:05:06.231Z,99301.66
2022-08-03T08:07:33.442Z,99272.78
2022-08-03T08:10:00.373Z,99284.28
2022-08-03T08:12:27.214Z,99274.69
2022-08-03T08:14:54.107Z,99279.00
2022-08-03T08:17:20.960Z,99281.78
2022-08-03T08:19:51.578Z,99279.06
2022-08-03T08:22:26.531Z,99286.63
2022-08-03T08:24:58.968Z,99290.47
2022-08-03T08:27:26.322Z,99267.91
2022-08-03T08:29:55.775Z,99266.34
2022-08-03T08:32:25.901Z,99268.53
2022-08-03T08:34:52.693Z,99279.63
2022-08-03T08:37:19.548Z,99269.69
2022-08-03T08:39:46.403Z,99276.25
2022-08-03T08:42:13.373Z,99278.81
2022-08-03T08:44:40.221Z,99280.13
2022-08-03T08:47:08.516Z,99273.97
2022-08-03T08:49:38.435Z,99279.38
2022-08-03T08:52:25.307Z,99282.91
2022-08-03T08:55:20.591Z,99261.31
2022-08-03T08:57:58.980Z,99262.56
2022-08-03T09:00:25.873Z,99264.44
2022-08-03T09:02:52.800Z,99259.22
2022-08-03T09:05:27.807Z,99274.91
2022-08-03T09:08:07.537Z,99281.59
2022-08-03T09:10:54.616Z,99283.25
2022-08-03T09:13:21.912Z,99264.53
2022-08-03T09:16:00.827Z,99281.13
2022-08-03T09:18:32.773Z,99254.25
2022-08-03T09:21:33.239Z,99274.97
2022-08-03T09:24:05.890Z,99271.44
2022-08-03T09:26:37.894Z,99275.59
2022-08-03T09:29:15.003Z,99265.72
2022-08-03T09:31:44.321Z,99275.22
2022-08-03T09:34:14.722Z,99283.25
2022-08-03T09:36:44.642Z,99282.31
2022-08-03T09:39:13.857Z,99258.56
2022-08-03T09:41:42.987Z,99294.00
2022-08-03T09:44:24.553Z,99308.13
2022-08-03T09:46:56.388Z,99309.34
2022-08-03T09:49:24.956Z,99284.91
2022-08-03T09:52:30.062Z,99289.22
2022-08-03T09:54:41.062Z,99291.41
2022-08-03T09:57:08.232Z,99307.13
2022-08-03T09:59:35.528Z,99303.50
2022-08-03T10:02:20.183Z,99291.84
2022-08-03T10:04:47.814Z,99299.44
2022-08-03T10:07:14.600Z,99298.81
2022-08-03T10:09:54.225Z,99298.97
2022-08-03T10:12:21.855Z,99300.69
2022-08-03T10:14:48.876Z,99291.56
2022-08-03T10:17:16.157Z,99293.56
2022-08-03T10:20:06.702Z,99292.25
2022-08-03T10:22:36.554Z,99294.75
2022-08-03T10:25:24.557Z,99291.13
2022-08-03T10:28:02.984Z,99293.97
2022-08-03T10:30:32.206Z,99307.44
2022-08-03T10:33:49.270Z,99281.66
2022-08-03T10:36:00.160Z,99296.97
2022-08-03T10:38:37.474Z,99280.56
2022-08-03T10:41:07.677Z,99272.06
2022-08-03T10:43:45.868Z,99293.16
2022-08-03T10:46:15.893Z,99289.50
2022-08-03T10:48:45.683Z,99308.88
2022-08-03T10:51:13.644Z,99300.28
2022-08-03T10:53:44.026Z,99307.44
2022-08-03T10:56:50.290Z,99308.56
2022-08-03T10:59:27.912Z,99304.63
2022-08-03T11:02:00.405Z,99305.13
2022-08-03T11:04:29.992Z,99283.31
2022-08-03T11:07:36.792Z,99267.69
2022-08-03T11:10:07.784Z,99293.84
2022-08-03T11:12:37.651Z,99302.22
2022-08-03T11:15:07.593Z,99288.56
2022-08-03T11:18:11.245Z,99299.59
2022-08-03T11:20:58.841Z,99272.22
2022-08-03T11:24:16.625Z,99304.03
2022-08-03T11:27:15.364Z,99304.59
2022-08-03T11:30:09.540Z,99293.41
2022-08-03T11:33:05.665Z,99280.72
2022-08-03T11:35:34.173Z,99289.97
2022-08-03T11:38:03.208Z,99297.56
2022-08-03T11:40:50.628Z,99307.56
2022-08-03T11:43:26.749Z,99310.00
2022-08-03T11:46:13.497Z,99301.38
2022-08-03T11:49:10.013Z,99298.19
2022-08-03T11:51:38.384Z,99290.22
2022-08-03T11:54:19.944Z,99296.16
2022-08-03T11:56:50.618Z,99290.50
2022-08-03T11:59:21.841Z,99291.78
2022-08-03T12:02:06.110Z,99291.03
2022-08-03T12:04:59.026Z,99294.94
2022-08-03T12:08:03.338Z,99293.56
2022-08-03T12:10:16.233Z,99309.16
2022-08-03T12:12:46.277Z,99309.38
2022-08-03T12:15:13.842Z,99283.47
2022-08-03T12:17:41.505Z,99273.25
2022-08-03T12:20:10.369Z,99276.34
2022-08-03T12:22:39.564Z,99278.78
2022-08-03T12:25:08.677Z,99273.31
2022-08-03T12:27:36.564Z,99293.78
2022-08-03T12:30:04.234Z,99290.09
2022-08-03T12:32:31.636Z,99293.69
2022-08-03T12:35:00.273Z,99282.78
2022-08-03T12:37:27.575Z,99293.94
2022-08-03T12:40:01.699Z,99288.78
2022-08-03T12:42:34.850Z,99277.69
2022-08-03T12:45:23.270Z,99273.50
2022-08-03T12:47:58.108Z,99276.44
2022-08-03T12:50:32.171Z,99277.22
2022-08-03T12:53:30.588Z,99292.22
2022-08-03T12:56:05.705Z,99283.56
2022-08-03T12:58:35.933Z,99265.16
2022-08-03T13:01:10.041Z,99275.41
2022-08-03T13:03:42.562Z,99287.84
2022-08-03T13:06:18.116Z,99272.81
2022-08-03T13:08:45.959Z,99278.53
2022-08-03T13:11:50.661Z,99260.06
2022-08-03T13:14:19.767Z,99274.88
2022-08-03T13:16:49.777Z,99250.81
2022-08-03T13:19:16.623Z,99266.75
2022-08-03T13:22:02.139Z,99271.09
2022-08-03T13:24:32.421Z,99251.31
2022-08-03T13:27:00.125Z,99273.75
2022-08-03T13:29:27.136Z,99270.88
2022-08-03T13:31:54.077Z,99262.00
2022-08-03T13:34:23.962Z,99268.59
2022-08-03T13:39:57.296Z,99266.03
2022-08-03T13:42:30.644Z,99264.94
2022-08-03T13:44:58.114Z,99261.00
2022-08-03T13:47:25.653Z,99265.72
2022-08-03T13:49:54.246Z,99240.59
2022-08-03T13:52:30.381Z,99250.56
2022-08-03T13:54:57.206Z,99260.47
2022-08-03T13:58:03.733Z,99276.56
2022-08-03T14:00:11.614Z,99261.97
2022-08-03T14:02:38.506Z,99255.31
2022-08-03T14:05:05.861Z,99258.50
2022-08-03T14:07:32.699Z,99272.53
2022-08-03T14:10:12.979Z,99271.75
2022-08-03T14:12:39.929Z,99269.28
2022-08-03T14:15:07.596Z,99263.25
2022-08-03T14:17:42.312Z,99269.22
2022-08-03T14:20:36.254Z,99267.81
2022-08-03T14:23:03.727Z,99270.06
2022-08-03T14:25:56.819Z,99281.38
2022-08-03T14:28:24.370Z,99293.91
2022-08-03T14:30:52.769Z,99273.94
2022-08-03T14:33:20.019Z,99286.78
2022-08-03T14:35:47.191Z,99277.44
2022-08-03T14:38:14.457Z,99278.59
2022-08-03T14:40:41.613Z,99258.44
2022-08-03T14:43:08.828Z,99275.50
2022-08-03T14:45:35.931Z,99281.59
2022-08-03T14:50:24.948Z,99277.56
2022-08-03T14:50:51.933Z,99275.78
2022-08-03T14:53:19.485Z,99289.53
2022-08-03T14:55:51.770Z,99287.13
2022-08-03T14:58:21.429Z,99289.97
2022-08-03T15:00:50.492Z,99290.75
2022-08-03T15:03:18.667Z,99292.53
2022-08-03T15:05:45.627Z,99305.06
2022-08-03T15:08:12.541Z,99292.25
2022-08-03T15:10:40.386Z,99307.94
2022-08-03T15:13:13.081Z,99304.63
2022-08-03T15:15:40.442Z,99302.72
2022-08-03T15:18:09.283Z,99296.94
2022-08-03T15:20:45.433Z,99316.91
2022-08-03T15:23:15.691Z,99311.91
2022-08-03T15:26:32.241Z,99299.44
2022-08-03T15:28:33.985Z,99303.06
2022-08-03T15:31:04.452Z,99314.28
2022-08-03T15:33:31.333Z,99278.97
2022-08-03T15:36:01.262Z,99307.34
2022-08-03T15:38:28.444Z,99300.34
2022-08-03T15:40:55.329Z,99325.16
2022-08-03T15:43:23.327Z,99313.16
2022-08-03T15:46:12.702Z,99299.22
2022-08-03T15:48:37.714Z,99289.72
2022-08-03T15:51:05.156Z,99317.69
2022-08-03T15:53:32.530Z,99285.97
2022-08-03T15:55:59.692Z,99298.75
2022-08-03T15:59:07.661Z,99298.16
2022-08-03T16:01:20.090Z,99289.72
2022-08-03T16:03:47.328Z,99302.22
2022-08-03T16:06:19.403Z,99297.66
2022-08-03T16:08:57.125Z,99290.19
2022-08-03T16:11:24.030Z,99324.44
2022-08-03T16:14:13.851Z,99301.91
2022-08-03T16:16:40.063Z,99296.69
2022-08-03T16:19:27.144Z,99316.41
2022-08-03T16:21:54.139Z,99311.75
2022-08-03T16:24:27.727Z,99294.31
2022-08-03T16:26:55.652Z,99295.31
2022-08-03T16:29:23.437Z,99318.19
2022-08-03T16:31:52.161Z,99318.66
2022-08-03T16:34:31.273Z,99305.31
2022-08-03T16:36:58.210Z,99344.56
2022-08-03T16:39:25.379Z,99322.94
2022-08-03T16:41:54.208Z,99310.75
2022-08-03T16:44:29.592Z,99329.91
2022-08-03T16:46:56.547Z,99325.50
2022-08-03T16:49:54.806Z,99318.94
2022-08-03T16:52:24.215Z,99321.44
2022-08-03T16:54:53.651Z,99340.41
2022-08-03T16:57:56.765Z,99324.91
2022-08-03T17:00:11.724Z,99337.72
2022-08-03T17:02:48.029Z,99332.63
2022-08-03T17:05:47.460Z,99337.22
2022-08-03T17:08:15.375Z,99354.25
2022-08-03T17:10:45.051Z,99344.25
2022-08-03T17:13:22.676Z,99355.03
2022-08-03T17:16:00.595Z,99347.91
2022-08-03T17:18:33.831Z,99357.53
2022-08-03T17:21:06.669Z,99354.06
2022-08-03T17:23:57.641Z,99347.22
2022-08-03T17:26:30.374Z,99349.16
2022-08-03T17:29:12.696Z,99346.69
2022-08-03T17:31:48.529Z,99333.94
2022-08-03T17:34:17.587Z,99347.16
2022-08-03T17:39:57.670Z,99352.00
2022-08-03T17:42:29.092Z,99346.81
2022-08-03T17:45:52.778Z,99350.22
2022-08-03T17:48:25.034Z,99333.53
2022-08-03T17:51:02.522Z,99357.28
2022-08-03T17:53:35.725Z,99329.97
2022-08-03T17:56:44.537Z,99335.13
2022-08-03T17:59:09.863Z,99352.69
2022-08-03T18:02:03.368Z,99350.22
2022-08-03T18:04:41.825Z,99364.16
2022-08-03T18:07:11.785Z,99337.81
2022-08-03T18:10:06.657Z,99331.50
2022-08-03T18:12:40.314Z,99352.75
2022-08-03T18:15:20.956Z,99370.19
2022-08-03T18:17:55.804Z,99359.38
2022-08-03T18:20:32.966Z,99350.31
2022-08-03T18:23:06.158Z,99347.84
2022-08-03T18:25:45.815Z,99356.19
2022-08-03T18:28:19.261Z,99348.00
2022-08-03T18:30:54.563Z,99354.13
2022-08-03T18:34:19.464Z,99365.63
2022-08-03T18:36:22.133Z,99366.94
2022-08-03T18:38:59.436Z,99365.91
2022-08-03T18:41:32.716Z,99364.72
2022-08-03T18:44:08.944Z,99362.28
2022-08-03T18:47:07.465Z,99356.00
2022-08-03T18:50:19.715Z,99348.19
2022-08-03T18:52:52.831Z,99371.72
2022-08-03T18:55:33.415Z,99377.25
2022-08-03T18:58:09.985Z,99382.56
2022-08-03T19:00:58.684Z,99385.63
2022-08-03T19:03:41.497Z,99352.06
2022-08-03T19:06:21.686Z,99375.78
2022-08-03T19:08:55.706Z,99366.31
2022-08-03T19:12:12.764Z,99373.09
2022-08-03T19:14:42.234Z,99368.50
2022-08-03T19:17:11.790Z,99373.41
2022-08-03T19:19:45.032Z,99355.94
2022-08-03T19:22:16.029Z,99387.09
2022-08-03T19:24:46.050Z,99385.50
2022-08-03T19:27:14.117Z,99372.44
2022-08-03T19:29:57.879Z,99360.25
2022-08-03T19:32:28.670Z,99371.38
2022-08-03T19:35:51.720Z,99386.31
2022-08-03T19:38:14.878Z,99390.59
2022-08-03T19:40:59.787Z,99358.16
2022-08-03T19:43:53.986Z,99388.28
2022-08-03T19:46:30.825Z,99383.34
2022-08-03T19:49:15.012Z,99379.28
2022-08-03T19:52:02.344Z,99373.06
2022-08-03T19:54:52.818Z,99370.28
2022-08-03T19:57:24.142Z,99389.78
2022-08-03T19:59:53.935Z,99372.97
2022-08-03T20:02:26.540Z,99381.03
2022-08-03T20:04:59.981Z,99380.66
2022-08-03T20:07:31.094Z,99370.09
2022-08-03T20:09:59.654Z,99377.16
2022-08-03T20:12:30.645Z,99389.13
2022-08-03T20:15:00.413Z,99382.63
2022-08-03T20:17:55.254Z,99364.59
2022-08-03T20:20:19.715Z,99388.44
2022-08-03T20:22:48.236Z,99367.50
2022-08-03T20:25:20.931Z,99397.19
2022-08-03T20:28:07.950Z,99387.31
2022-08-03T20:30:43.424Z,99390.19
2022-08-03T20:33:11.023Z,99388.25
2022-08-03T20:35:38.626Z,99382.94
2022-08-03T20:38:09.065Z,99366.56
2022-08-03T20:40:36.662Z,99392.59
2022-08-03T20:43:05.129Z,99402.00
2022-08-03T20:45:59.550Z,99400.34
2022-08-03T20:48:22.005Z,99388.84
2022-08-03T20:50:49.720Z,99401.50
2022-08-03T20:53:20.935Z,99390.97
2022-08-03T20:56:04.852Z,99401.00
2022-08-03T20:58:33.319Z,99387.44
2022-08-03T21:01:01.178Z,99397.44
2022-08-03T21:03:40.653Z,99401.88
2022-08-03T21:06:18.884Z,99407.63
2022-08-03T21:09:04.119Z,99385.63
2022-08-03T21:11:43.748Z,99396.94
2022-08-03T21:14:19.121Z,99408.63
2022-08-03T21:16:50.647Z,99405.66
2022-08-03T21:19:20.251Z,99406.41
2022-08-03T21:21:47.994Z,99412.59
2022-08-03T21:24:15.397Z,99406.19
2022-08-03T21:26:45.997Z,99413.63
2022-08-03T21:29:13.260Z,99424.34
2022-08-03T21:31:40.691Z,99409.63
2022-08-03T21:34:07.551Z,99415.28
2022-08-03T21:36:36.483Z,99412.13
2022-08-03T21:39:06.590Z,99420.94
2022-08-03T21:41:34.655Z,99406.91
2022-08-03T21:44:02.594Z,99416.34
2022-08-03T21:46:39.198Z,99395.97
2022-08-03T21:50:07.809Z,99438.03
2022-08-03T21:51:59.137Z,99422.47
2022-08-03T21:54:40.849Z,99404.69
2022-08-03T21:57:18.630Z,99409.28
2022-08-03T21:59:53.104Z,99440.03
2022-08-03T22:02:22.831Z,99431.69
2022-08-03T22:04:56.355Z,99416.31
2022-08-03T22:07:26.629Z,99409.66
2022-08-03T22:09:55.857Z,99425.00
2022-08-03T22:12:26.730Z,99423.84
2022-08-03T22:15:00.741Z,99422.38
2022-08-03T22:17:55.036Z,99423.75
2022-08-03T22:20:21.596Z,99409.09
2022-08-03T22:22:55.019Z,99419.56
2022-08-03T22:25:26.312Z,99430.22
2022-08-03T22:27:54.561Z,99411.16
2022-08-03T22:30:21.648Z,99422.06
2022-08-03T22:32:51.996Z,99431.13
2022-08-03T22:35:21.239Z,99423.06
2022-08-03T22:37:53.892Z,99410.34
2022-08-03T22:40:21.561Z,99417.19
2022-08-03T22:42:49.221Z,99438.69
2022-08-03T22:46:07.517Z,99409.25
2022-08-03T22:48:07.339Z,99413.16
2022-08-03T22:50:34.904Z,99423.91
2022-08-03T22:53:02.075Z,99436.31
2022-08-03T22:55:29.535Z,99420.03
2022-08-03T22:57:56.639Z,99412.63
2022-08-03T23:00:24.261Z,99426.19
2022-08-03T23:02:53.587Z,99423.78
2022-08-03T23:06:02.508Z,99424.06
2022-08-03T23:08:20.554Z,99425.00
2022-08-03T23:10:48.620Z,99417.47
2022-08-03T23:13:19.633Z,99410.69
2022-08-03T23:15:54.070Z,99422.38
2022-08-03T23:18:28.287Z,99423.66
2022-08-03T23:20:58.876Z,99445.56
2022-08-03T23:23:26.189Z,99430.88
2022-08-03T23:25:53.273Z,99427.34
2022-08-03T23:28:20.881Z,99409.63
2022-08-03T23:30:50.390Z,99434.91
2022-08-03T23:33:18.165Z,99424.84
2022-08-03T23:36:18.754Z,99447.81
2022-08-03T23:38:36.020Z,99447.25
2022-08-03T23:41:05.219Z,99439.66
2022-08-03T23:43:53.797Z,99428.38
2022-08-03T23:46:25.902Z,99437.66
2022-08-03T23:48:56.415Z,99440.78
2022-08-03T23:51:31.601Z,99452.66
2022-08-03T23:54:06.348Z,99436.88
2022-08-03T23:56:48.075Z,99460.50
2022-08-03T23:59:28.152Z,99456.16
